createdAt,value
2022-12-16T00:00:16.465Z,83.02
2022-12-16T00:02:44.650Z,83.63
2022-12-16T00:05:12.554Z,84.04
2022-12-16T00:07:40.416Z,83.46
2022-12-16T00:10:11.639Z,82.95
2022-12-16T00:12:41.335Z,84.08
2022-12-16T00:15:09.944Z,83.33
2022-12-16T00:17:37.993Z,83.66
2022-12-16T00:20:06.965Z,82.74
2022-12-16T00:22:35.235Z,82.60
2022-12-16T00:25:02.909Z,82.48
2022-12-16T00:27:30.829Z,83.14
2022-12-16T00:30:00.309Z,83.46
2022-12-16T00:32:28.044Z,82.17
2022-12-16T00:34:55.859Z,82.61
2022-12-16T00:37:24.121Z,83.84
2022-12-16T00:39:55.305Z,82.18
2022-12-16T00:42:26.299Z,83.00
2022-12-16T00:44:54.581Z,83.28
2022-12-16T00:47:22.678Z,84.25
2022-12-16T00:49:50.565Z,83.07
2022-12-16T00:52:18.837Z,85.21
2022-12-16T00:54:46.672Z,84.08
2022-12-16T00:57:14.494Z,83.86
2022-12-16T00:59:42.723Z,83.37
2022-12-16T01:02:11.406Z,84.23
2022-12-16T01:04:39.382Z,83.29
2022-12-16T01:07:07.576Z,84.13
2022-12-16T01:09:36.729Z,83.89
2022-12-16T01:12:04.712Z,83.99
2022-12-16T01:14:33.013Z,84.54
2022-12-16T01:17:01.782Z,83.25
2022-12-16T01:19:29.576Z,83.65
2022-12-16T01:21:57.809Z,85.38
2022-12-16T01:24:25.707Z,85.94
2022-12-16T01:26:56.716Z,85.53
2022-12-16T01:29:25.723Z,85.88
2022-12-16T01:31:56.907Z,85.77
2022-12-16T01:34:25.100Z,85.74
2022-12-16T01:36:52.930Z,85.89
2022-12-16T01:39:20.863Z,85.69
2022-12-16T01:41:51.943Z,84.33
2022-12-16T01:44:22.506Z,84.58
2022-12-16T01:47:00.991Z,83.92
2022-12-16T01:49:35.200Z,85.33
2022-12-16T01:52:08.780Z,84.94
2022-12-16T01:54:55.370Z,84.94
2022-12-16T01:57:49.259Z,85.09
2022-12-16T02:00:17.227Z,84.39
2022-12-16T02:02:47.989Z,84.39
2022-12-16T02:05:20.691Z,85.17
2022-12-16T02:08:02.776Z,84.50
2022-12-16T02:11:03.316Z,85.37
2022-12-16T02:14:09.905Z,86.54
2022-12-16T02:16:52.642Z,85.07
2022-12-16T02:19:57.471Z,84.18
2022-12-16T02:22:29.022Z,83.70
2022-12-16T02:25:11.106Z,85.92
2022-12-16T02:27:56.157Z,85.80
2022-12-16T02:30:26.682Z,86.31
2022-12-16T02:33:11.582Z,86.38
2022-12-16T02:35:52.436Z,86.87
2022-12-16T02:38:31.227Z,87.44
2022-12-16T02:41:05.533Z,86.42
2022-12-16T02:43:52.589Z,88.08
2022-12-16T02:46:27.352Z,88.44
2022-12-16T02:48:55.799Z,88.45
2022-12-16T02:51:26.955Z,88.82
2022-12-16T02:53:56.837Z,89.42
2022-12-16T02:56:53.587Z,88.12
2022-12-16T02:59:32.618Z,86.86
2022-12-16T03:02:13.470Z,87.86
2022-12-16T03:05:01.596Z,89.77
2022-12-16T03:07:36.753Z,89.80
2022-12-16T03:10:08.154Z,88.14
2022-12-16T03:12:38.769Z,88.26
2022-12-16T03:15:08.947Z,89.07
2022-12-16T03:17:40.396Z,89.15
2022-12-16T03:20:37.127Z,89.71
2022-12-16T03:23:10.776Z,88.75
2022-12-16T03:25:43.058Z,89.65
2022-12-16T03:28:22.818Z,88.94
2022-12-16T03:30:59.746Z,89.15
2022-12-16T03:33:45.741Z,89.40
2022-12-16T03:36:21.523Z,89.50
2022-12-16T03:38:51.287Z,89.97
2022-12-16T03:41:24.398Z,89.04
2022-12-16T03:43:53.125Z,90.34
2022-12-16T03:46:21.730Z,90.92
2022-12-16T03:48:51.539Z,91.21
2022-12-16T03:51:20.028Z,91.61
2022-12-16T03:53:48.249Z,90.73
2022-12-16T03:56:16.734Z,90.94
2022-12-16T03:58:44.659Z,91.94
2022-12-16T04:01:13.328Z,91.93
2022-12-16T04:03:41.845Z,92.26
2022-12-16T04:06:09.755Z,92.24
2022-12-16T04:08:37.674Z,92.50
2022-12-16T04:11:24.537Z,92.63
2022-12-16T04:14:11.072Z,92.40
2022-12-16T04:16:57.960Z,91.89
2022-12-16T04:19:50.573Z,92.16
2022-12-16T04:22:48.848Z,92.17
2022-12-16T04:25:30.292Z,92.67
2022-12-16T04:27:58.979Z,92.91
2022-12-16T04:30:28.450Z,93.12
2022-12-16T04:33:28.435Z,92.68
2022-12-16T04:36:15.514Z,92.67
2022-12-16T04:39:04.498Z,91.95
2022-12-16T04:41:51.442Z,91.54
2022-12-16T04:44:37.951Z,92.56
2022-12-16T04:47:25.111Z,91.68
2022-12-16T04:50:11.511Z,92.37
2022-12-16T04:53:01.668Z,92.90
2022-12-16T04:55:50.748Z,92.39
2022-12-16T04:58:37.713Z,92.65
2022-12-16T05:01:24.395Z,93.21
2022-12-16T05:04:11.419Z,93.69
2022-12-16T05:06:57.719Z,93.86
2022-12-16T05:09:44.508Z,94.05
2022-12-16T05:12:31.015Z,94.13
2022-12-16T05:15:17.831Z,93.88
2022-12-16T05:18:04.320Z,93.60
2022-12-16T05:20:51.178Z,94.19
2022-12-16T05:23:37.831Z,94.01
2022-12-16T05:26:24.343Z,94.10
2022-12-16T05:29:10.911Z,94.58
2022-12-16T05:31:57.754Z,94.58
2022-12-16T05:34:44.097Z,94.90
2022-12-16T05:37:30.980Z,94.90
2022-12-16T05:40:17.389Z,95.45
2022-12-16T05:43:06.492Z,94.88
2022-12-16T05:45:53.199Z,95.37
2022-12-16T05:48:44.446Z,95.43
2022-12-16T05:51:34.052Z,95.47
2022-12-16T05:54:20.913Z,95.02
2022-12-16T05:57:07.192Z,95.38
2022-12-16T05:59:54.045Z,95.68
2022-12-16T06:02:41.176Z,96.02
2022-12-16T06:05:27.970Z,95.77
2022-12-16T06:08:14.311Z,95.94
2022-12-16T06:11:18.144Z,96.46
2022-12-16T06:14:04.318Z,96.30
2022-12-16T06:17:08.148Z,96.27
2022-12-16T06:19:54.527Z,96.17
2022-12-16T06:22:41.219Z,96.88
2022-12-16T06:25:27.714Z,97.19
2022-12-16T06:28:14.283Z,96.72
2022-12-16T06:31:11.335Z,96.29
2022-12-16T06:33:58.198Z,96.38
2022-12-16T06:36:44.672Z,96.32
2022-12-16T06:39:31.491Z,96.14
2022-12-16T06:42:17.741Z,95.75
2022-12-16T06:45:04.571Z,95.95
2022-12-16T06:47:51.427Z,96.06
2022-12-16T06:50:42.981Z,96.55
2022-12-16T06:53:31.571Z,96.65
2022-12-16T06:56:18.768Z,96.38
2022-12-16T06:59:05.005Z,96.94
2022-12-16T07:01:51.743Z,96.63
2022-12-16T07:04:38.183Z,96.09
2022-12-16T07:07:25.282Z,95.38
2022-12-16T07:10:11.660Z,95.24
2022-12-16T07:13:02.074Z,95.09
2022-12-16T07:15:48.582Z,94.82
2022-12-16T07:18:35.067Z,95.71
2022-12-16T07:21:24.820Z,95.59
2022-12-16T07:24:11.743Z,96.05
2022-12-16T07:26:58.056Z,95.97
2022-12-16T07:29:44.454Z,96.23
2022-12-16T07:32:33.531Z,96.68
2022-12-16T07:35:20.121Z,96.64
2022-12-16T07:38:23.566Z,96.68
2022-12-16T07:41:10.225Z,96.62
2022-12-16T07:43:56.671Z,96.75
2022-12-16T07:46:45.991Z,96.14
2022-12-16T07:49:32.530Z,95.76
2022-12-16T07:52:19.224Z,94.32
2022-12-16T07:55:05.587Z,94.89
2022-12-16T07:57:52.506Z,94.61
2022-12-16T08:00:38.983Z,94.72
2022-12-16T08:03:25.538Z,93.90
2022-12-16T08:06:33.909Z,94.51
2022-12-16T08:09:23.856Z,93.31
2022-12-16T08:12:10.028Z,93.23
2022-12-16T08:14:56.501Z,93.05
2022-12-16T08:17:42.503Z,92.28
2022-12-16T08:20:29.527Z,93.08
2022-12-16T08:23:18.637Z,92.65
2022-12-16T08:26:05.292Z,91.30
2022-12-16T08:28:52.129Z,91.25
2022-12-16T08:31:39.809Z,91.77
2022-12-16T08:34:25.903Z,91.28
2022-12-16T08:37:12.796Z,91.41
2022-12-16T08:40:25.802Z,91.56
2022-12-16T08:43:10.951Z,91.83
2022-12-16T08:46:00.332Z,92.72
2022-12-16T08:48:47.244Z,92.83
2022-12-16T08:51:33.554Z,92.32
2022-12-16T08:54:20.167Z,93.14
2022-12-16T08:57:06.494Z,91.74
2022-12-16T08:59:53.084Z,92.62
2022-12-16T09:02:39.560Z,92.27
2022-12-16T09:05:27.171Z,91.99
2022-12-16T09:08:19.503Z,89.98
2022-12-16T09:11:05.936Z,89.50
2022-12-16T09:13:52.363Z,87.24
2022-12-16T09:16:38.970Z,87.12
2022-12-16T09:19:25.638Z,86.51
2022-12-16T09:22:12.848Z,87.15
2022-12-16T09:24:59.289Z,86.51
2022-12-16T09:27:46.011Z,86.46
2022-12-16T09:30:32.631Z,85.13
2022-12-16T09:33:21.581Z,83.37
2022-12-16T09:36:08.021Z,84.18
2022-12-16T09:38:54.693Z,84.87
2022-12-16T09:42:04.315Z,85.35
2022-12-16T09:44:57.788Z,85.30
2022-12-16T09:47:56.176Z,86.14
2022-12-16T09:50:45.776Z,83.73
2022-12-16T09:53:36.942Z,81.29
2022-12-16T09:56:36.406Z,82.51
2022-12-16T09:59:31.867Z,82.77
2022-12-16T10:02:19.927Z,82.47
2022-12-16T10:05:11.789Z,82.62
2022-12-16T10:08:07.154Z,81.85
2022-12-16T10:11:27.313Z,82.07
2022-12-16T10:14:40.533Z,80.32
2022-12-16T10:17:41.515Z,83.38
2022-12-16T10:21:10.009Z,82.43
2022-12-16T10:24:25.012Z,82.65
2022-12-16T10:27:32.810Z,81.05
2022-12-16T10:30:21.257Z,83.35
2022-12-16T10:33:14.149Z,85.28
2022-12-16T10:36:08.362Z,81.44
2022-12-16T10:39:12.691Z,84.21
2022-12-16T10:42:04.683Z,84.60
2022-12-16T10:44:59.555Z,81.25
2022-12-16T10:47:46.252Z,82.33
2022-12-16T10:50:33.800Z,84.29
2022-12-16T10:53:24.637Z,79.85
2022-12-16T10:56:17.238Z,81.39
2022-12-16T10:59:13.998Z,82.68
2022-12-16T11:02:00.554Z,84.01
2022-12-16T11:04:56.394Z,83.43
2022-12-16T11:07:56.782Z,84.74
2022-12-16T11:10:56.028Z,84.19
2022-12-16T11:13:47.817Z,84.41
2022-12-16T11:16:54.877Z,85.15
2022-12-16T11:19:49.122Z,85.30
2022-12-16T11:22:38.548Z,84.28
2022-12-16T11:25:38.470Z,85.21
2022-12-16T11:28:36.773Z,84.12
2022-12-16T11:31:32.426Z,84.17
2022-12-16T11:34:21.741Z,84.61
2022-12-16T11:37:11.209Z,83.95
2022-12-16T11:39:59.368Z,84.71
2022-12-16T11:42:51.506Z,84.76
2022-12-16T11:45:40.490Z,83.81
2022-12-16T11:48:53.199Z,84.14
2022-12-16T11:51:41.779Z,84.08
2022-12-16T11:54:44.807Z,84.30
2022-12-16T11:57:40.927Z,83.43
2022-12-16T12:00:33.839Z,83.00
2022-12-16T12:03:25.681Z,84.30
2022-12-16T12:06:21.275Z,86.03
2022-12-16T12:09:39.069Z,83.99
2022-12-16T12:13:12.624Z,81.86
2022-12-16T12:16:14.812Z,82.14
2022-12-16T12:19:09.883Z,80.01
2022-12-16T12:22:17.973Z,82.74
2022-12-16T12:25:16.707Z,80.91
2022-12-16T12:28:42.973Z,79.79
2022-12-16T12:32:14.215Z,80.63
2022-12-16T12:35:01.019Z,79.62
2022-12-16T12:38:26.983Z,80.32
2022-12-16T12:41:20.542Z,80.33
2022-12-16T12:44:36.437Z,82.04
2022-12-16T12:47:32.208Z,82.88
2022-12-16T12:50:35.850Z,81.74
2022-12-16T12:53:34.770Z,82.05
2022-12-16T12:56:44.346Z,83.36
2022-12-16T12:59:46.139Z,82.27
2022-12-16T13:02:39.878Z,82.65
2022-12-16T13:05:32.677Z,84.73
2022-12-16T13:08:58.110Z,82.90
2022-12-16T13:11:58.809Z,83.58
2022-12-16T13:14:51.950Z,82.47
2022-12-16T13:17:41.498Z,85.48
2022-12-16T13:20:50.749Z,83.09
2022-12-16T13:24:00.329Z,84.84
2022-12-16T13:26:48.849Z,83.03
2022-12-16T13:29:47.623Z,83.27
2022-12-16T13:32:38.028Z,84.55
2022-12-16T13:35:36.777Z,82.45
2022-12-16T13:38:40.160Z,84.83
2022-12-16T13:42:06.778Z,83.45
2022-12-16T13:45:02.977Z,83.77
2022-12-16T13:48:13.889Z,83.52
2022-12-16T13:51:03.209Z,85.75
2022-12-16T13:53:56.136Z,85.83
2022-12-16T13:56:53.662Z,84.48
2022-12-16T13:59:43.363Z,84.76
2022-12-16T14:02:42.268Z,85.90
2022-12-16T14:05:43.667Z,86.49
2022-12-16T14:08:36.366Z,87.22
2022-12-16T14:11:34.375Z,85.76
2022-12-16T14:14:43.488Z,89.79
2022-12-16T14:17:38.543Z,87.34
2022-12-16T14:20:25.320Z,88.66
2022-12-16T14:24:06.953Z,90.97
2022-12-16T14:26:47.372Z,85.36
2022-12-16T14:29:41.817Z,88.32
2022-12-16T14:32:40.480Z,86.28
2022-12-16T14:35:36.438Z,89.14
2022-12-16T14:38:47.916Z,91.90
2022-12-16T14:41:39.866Z,86.58
2022-12-16T14:44:37.858Z,89.58
2022-12-16T14:47:25.339Z,86.33
2022-12-16T14:50:13.844Z,84.88
2022-12-16T14:53:00.310Z,89.29
2022-12-16T14:55:50.367Z,86.44
2022-12-16T14:58:40.468Z,90.60
2022-12-16T15:01:39.782Z,85.56
2022-12-16T15:04:38.268Z,87.37
2022-12-16T15:07:31.697Z,88.16
2022-12-16T15:10:19.577Z,89.14
2022-12-16T15:13:08.401Z,91.32
2022-12-16T15:16:07.092Z,89.79
2022-12-16T15:19:01.929Z,90.93
2022-12-16T15:21:53.635Z,88.91
2022-12-16T15:24:45.916Z,91.46
2022-12-16T15:27:39.660Z,91.80
2022-12-16T15:30:55.601Z,89.59
2022-12-16T15:33:47.673Z,89.28
2022-12-16T15:36:40.204Z,91.61
2022-12-16T15:39:52.585Z,90.94
2022-12-16T15:42:56.964Z,90.61
2022-12-16T15:45:48.540Z,91.62
2022-12-16T15:48:51.779Z,87.64
2022-12-16T15:52:03.925Z,89.52
2022-12-16T15:55:08.223Z,88.68
2022-12-16T15:57:55.885Z,87.81
2022-12-16T16:00:49.490Z,89.65
2022-12-16T16:03:44.090Z,91.04
2022-12-16T16:06:48.225Z,88.65
2022-12-16T16:09:44.408Z,88.72
2022-12-16T16:12:33.353Z,87.58
2022-12-16T16:15:20.432Z,87.37
2022-12-16T16:18:12.813Z,87.42
2022-12-16T16:21:00.014Z,88.72
2022-12-16T16:23:51.802Z,88.39
2022-12-16T16:26:41.441Z,87.45
2022-12-16T16:29:30.191Z,86.77
2022-12-16T16:32:20.660Z,87.06
2022-12-16T16:35:07.805Z,87.27
2022-12-16T16:37:54.696Z,87.34
2022-12-16T16:40:51.735Z,87.32
2022-12-16T16:43:38.603Z,87.68
2022-12-16T16:46:40.045Z,86.87
2022-12-16T16:49:31.497Z,87.48
2022-12-16T16:52:17.991Z,89.72
2022-12-16T16:55:04.933Z,88.69
2022-12-16T16:57:56.141Z,89.42
2022-12-16T17:00:43.559Z,95.33
2022-12-16T17:03:30.152Z,90.77
2022-12-16T17:06:16.923Z,82.54
2022-12-16T17:09:03.559Z,86.64
2022-12-16T17:11:51.861Z,88.90
2022-12-16T17:14:39.853Z,88.16
2022-12-16T17:17:27.774Z,87.40
2022-12-16T17:20:17.438Z,88.59
2022-12-16T17:23:07.051Z,89.22
2022-12-16T17:25:53.904Z,88.43
2022-12-16T17:28:43.584Z,88.79
2022-12-16T17:31:30.689Z,88.44
2022-12-16T17:34:22.507Z,88.19
2022-12-16T17:37:11.428Z,88.85
2022-12-16T17:39:58.103Z,89.84
2022-12-16T17:42:46.833Z,88.85
2022-12-16T17:45:34.281Z,88.53
2022-12-16T17:48:20.708Z,88.75
2022-12-16T17:51:07.901Z,89.99
2022-12-16T17:54:00.144Z,93.65
2022-12-16T17:56:48.255Z,88.80
2022-12-16T17:59:34.710Z,89.54
2022-12-16T18:02:21.365Z,88.91
2022-12-16T18:05:08.605Z,89.00
2022-12-16T18:07:55.760Z,92.72
2022-12-16T18:10:42.474Z,89.53
2022-12-16T18:13:36.794Z,88.47
2022-12-16T18:16:24.042Z,91.00
2022-12-16T18:19:10.557Z,93.01
2022-12-16T18:21:58.946Z,91.17
2022-12-16T18:24:48.489Z,88.72
2022-12-16T18:27:38.802Z,87.40
2022-12-16T18:30:25.910Z,84.35
2022-12-16T18:33:12.940Z,91.85
2022-12-16T18:35:59.496Z,89.24
2022-12-16T18:38:45.980Z,86.26
2022-12-16T18:41:37.121Z,93.36
2022-12-16T18:44:24.539Z,92.32
2022-12-16T18:47:10.989Z,87.13
2022-12-16T18:49:57.900Z,91.63
2022-12-16T18:52:45.201Z,92.41
2022-12-16T18:55:32.217Z,82.39
2022-12-16T18:58:42.522Z,86.64
2022-12-16T19:01:28.993Z,85.92
2022-12-16T19:04:16.382Z,88.29
2022-12-16T19:07:03.521Z,87.78
2022-12-16T19:09:49.853Z,91.94
2022-12-16T19:12:36.857Z,89.73
2022-12-16T19:15:23.985Z,88.67
2022-12-16T19:18:12.028Z,89.43
2022-12-16T19:20:58.496Z,90.64
2022-12-16T19:23:45.321Z,94.51
2022-12-16T19:26:31.849Z,89.06
2022-12-16T19:29:19.053Z,90.83
2022-12-16T19:32:05.721Z,92.06
2022-12-16T19:34:52.644Z,89.24
2022-12-16T19:37:39.822Z,88.56
2022-12-16T19:40:29.816Z,90.33
2022-12-16T19:43:16.364Z,91.20
2022-12-16T19:46:33.988Z,90.12
2022-12-16T19:49:20.041Z,90.98
2022-12-16T19:52:06.635Z,89.59
2022-12-16T19:54:54.833Z,89.92
2022-12-16T19:57:46.947Z,89.84
2022-12-16T20:00:33.948Z,88.55
2022-12-16T20:03:20.637Z,90.73
2022-12-16T20:06:17.077Z,90.39
2022-12-16T20:09:03.904Z,90.96
2022-12-16T20:11:55.169Z,91.58
2022-12-16T20:14:46.491Z,90.26
2022-12-16T20:17:33.470Z,92.20
2022-12-16T20:20:19.904Z,91.17
2022-12-16T20:23:06.245Z,90.02
2022-12-16T20:25:56.342Z,94.08
2022-12-16T20:28:45.558Z,92.54
2022-12-16T20:31:35.633Z,89.16
2022-12-16T20:34:22.045Z,91.32
2022-12-16T20:37:09.025Z,91.13
2022-12-16T20:43:02.392Z,95.11
2022-12-16T20:45:49.146Z,89.34
2022-12-16T20:48:35.835Z,88.65
2022-12-16T20:51:26.781Z,85.91
2022-12-16T20:54:14.449Z,86.65
2022-12-16T20:57:01.011Z,81.26
2022-12-16T20:59:48.249Z,87.12
2022-12-16T21:02:34.965Z,85.07
2022-12-16T21:05:22.538Z,87.39
2022-12-16T21:08:12.096Z,91.31
2022-12-16T21:10:59.267Z,92.16
2022-12-16T21:13:45.916Z,88.72
2022-12-16T21:16:33.022Z,87.27
2022-12-16T21:19:19.606Z,84.22
2022-12-16T21:22:06.486Z,87.39
2022-12-16T21:24:53.292Z,88.58
2022-12-16T21:27:40.114Z,86.19
2022-12-16T21:30:27.532Z,85.15
2022-12-16T21:33:14.199Z,87.78
2022-12-16T21:36:00.820Z,91.38
2022-12-16T21:38:47.569Z,88.33
2022-12-16T21:41:33.926Z,82.51
2022-12-16T21:44:20.762Z,86.39
2022-12-16T21:47:09.722Z,87.93
2022-12-16T21:50:01.114Z,87.55
2022-12-16T21:52:49.693Z,87.34
2022-12-16T21:55:36.670Z,86.54
2022-12-16T21:58:31.321Z,87.32
2022-12-16T22:01:21.462Z,83.29
2022-12-16T22:04:09.072Z,85.18
2022-12-16T22:06:55.986Z,85.89
2022-12-16T22:09:42.833Z,84.95
2022-12-16T22:12:29.417Z,87.77
2022-12-16T22:15:18.078Z,86.29
2022-12-16T22:18:04.579Z,85.31
2022-12-16T22:20:51.834Z,85.44
2022-12-16T22:23:38.427Z,83.90
2022-12-16T22:26:25.324Z,84.70
2022-12-16T22:29:11.675Z,84.86
2022-12-16T22:31:59.076Z,84.48
2022-12-16T22:34:45.560Z,84.80
2022-12-16T22:37:32.366Z,84.14
2022-12-16T22:40:18.842Z,84.24
2022-12-16T22:43:08.641Z,83.71
2022-12-16T22:45:56.222Z,83.37
2022-12-16T22:48:42.958Z,85.57
2022-12-16T22:51:33.987Z,85.76
2022-12-16T22:54:20.932Z,82.80
2022-12-16T22:57:07.305Z,84.27
2022-12-16T22:59:54.243Z,85.84
2022-12-16T23:02:43.395Z,85.03
2022-12-16T23:05:33.599Z,84.74
2022-12-16T23:08:20.185Z,84.92
2022-12-16T23:11:16.860Z,85.08
2022-12-16T23:14:03.404Z,84.44
2022-12-16T23:16:50.399Z,83.82
2022-12-16T23:19:36.929Z,85.05
2022-12-16T23:22:23.679Z,84.54
2022-12-16T23:25:12.645Z,84.44
2022-12-16T23:27:59.983Z,84.06
2022-12-16T23:30:46.409Z,82.98
2022-12-16T23:32:31.028Z,95.12
2022-12-16T23:33:33.662Z,83.70
2022-12-16T23:36:20.211Z,84.72
2022-12-16T23:39:09.765Z,84.15
2022-12-16T23:41:56.051Z,83.81
2022-12-16T23:44:43.447Z,81.48
2022-12-16T23:47:33.108Z,86.15
2022-12-16T23:50:20.124Z,86.84
2022-12-16T23:53:06.456Z,86.89
2022-12-16T23:55:53.438Z,88.24
2022-12-16T23:58:39.992Z,88.36
